OKO weather

Yokota Air Base
Fussa, Tōkyō Prefecture, Japan

Public forecast

Using degrees Celsius for public forecast. Weather courtesy of forecast.io.

METAR (pilot weather report)

Retrieved 2019/04/26 16:37 UTC (0 seconds ago):

RJTY 261637Z AUTO 14003KT 3SM BR BKN004 OVC008 09/08 A2974 RMK AO2 DZB25E37 CIG 003 RWY18 SLP077 FZRANO $

TAF (pilot weather forecast)

Retrieved 2019/04/26 13:21 UTC (3 hours ago):

TAF RJTY 261300Z 2613/2719 VRB06KT 9999 OVC007 QNH2971INS BECMG 2616/2617 VRB06KT 4800 -SHRA BR BKN005 610059 QNH2972INS BECMG 2622/2623 02006KT 8000 -SHRA FEW008 BKN015 610308 QNH2973INS BECMG 2703/2704 01010G15KT 9999 NSW SCT030 BKN050 620508 QNH2974INS BECMG 2705/2706 34012G18KT 9999 BKN110 QNH2974INS TEMPO 2707/2712 34015G25KT TX14/2706Z TN07/2713Z LAST NO AMDS AFT 2613 NEXT 2621